createdAt,value
2022-08-17T00:02:10.906Z,97533.13
2022-08-17T00:04:26.532Z,97526.53
2022-08-17T00:06:31.370Z,97526.03
2022-08-17T00:08:41.112Z,97521.94
2022-08-17T00:10:45.748Z,97526.59
2022-08-17T00:12:50.293Z,97523.94
2022-08-17T00:14:53.526Z,97519.66
2022-08-17T00:16:58.565Z,97518.63
2022-08-17T00:19:07.810Z,97517.19
2022-08-17T00:21:12.695Z,97521.00
2022-08-17T00:23:18.065Z,97514.06
2022-08-17T00:25:21.104Z,97509.09
2022-08-17T00:27:24.331Z,97515.59
2022-08-17T00:29:28.731Z,97512.47
2022-08-17T00:31:33.522Z,97513.84
2022-08-17T00:33:37.262Z,97514.03
2022-08-17T00:35:40.637Z,97515.03
2022-08-17T00:37:43.701Z,97510.09
2022-08-17T00:39:46.879Z,97505.97
2022-08-17T00:41:49.972Z,97511.44
2022-08-17T00:43:56.769Z,97504.50
2022-08-17T00:46:03.430Z,97506.53
2022-08-17T00:48:06.492Z,97505.22
2022-08-17T00:50:29.480Z,97501.09
2022-08-17T00:52:37.100Z,97501.09
2022-08-17T00:54:42.244Z,97494.34
2022-08-17T00:56:47.948Z,97500.81
2022-08-17T00:58:53.428Z,97499.16
2022-08-17T01:00:57.033Z,97500.19
2022-08-17T01:03:06.231Z,97497.22
2022-08-17T01:05:10.349Z,97495.75
2022-08-17T01:07:13.831Z,97498.59
2022-08-17T01:09:17.208Z,97495.28
2022-08-17T01:11:21.127Z,97495.28
2022-08-17T01:13:28.734Z,97496.47
2022-08-17T01:15:32.784Z,97502.94
2022-08-17T01:17:35.944Z,97500.00
2022-08-17T01:19:42.329Z,97498.34
2022-08-17T01:21:49.306Z,97496.03
2022-08-17T01:23:53.840Z,97497.06
2022-08-17T01:26:01.752Z,97495.56
2022-08-17T01:28:05.599Z,97487.78
2022-08-17T01:30:56.741Z,97489.78
2022-08-17T01:32:35.451Z,97492.44
2022-08-17T01:34:43.629Z,97488.31
2022-08-17T01:36:53.450Z,97480.53
2022-08-17T01:38:59.736Z,97495.78
2022-08-17T01:41:04.882Z,97488.84
2022-08-17T01:43:11.954Z,97486.38
2022-08-17T01:45:19.305Z,97490.34
2022-08-17T01:47:22.504Z,97488.53
2022-08-17T01:49:27.012Z,97494.81
2022-08-17T01:51:32.828Z,97495.00
2022-08-17T01:53:40.208Z,97492.53
2022-08-17T01:55:48.229Z,97499.47
2022-08-17T01:57:51.528Z,97500.81
2022-08-17T01:59:55.038Z,97497.19
2022-08-17T02:01:58.530Z,97498.53
2022-08-17T02:04:02.630Z,97499.50
2022-08-17T02:06:11.974Z,97505.81
2022-08-17T02:08:37.205Z,97504.16
2022-08-17T02:10:46.791Z,97506.97
2022-08-17T02:12:51.584Z,97498.22
2022-08-17T02:14:54.819Z,97502.84
2022-08-17T02:16:59.265Z,97502.03
2022-08-17T02:19:02.534Z,97493.09
2022-08-17T02:21:06.943Z,97493.28
2022-08-17T02:23:12.604Z,97489.31
2022-08-17T02:25:18.185Z,97492.50
2022-08-17T02:27:25.253Z,97487.72
2022-08-17T02:29:29.688Z,97494.03
2022-08-17T02:31:32.854Z,97498.47
2022-08-17T02:33:42.706Z,97495.19
2022-08-17T02:35:46.631Z,97493.34
2022-08-17T02:37:51.921Z,97489.09
2022-08-17T02:39:59.405Z,97497.19
2022-08-17T02:42:03.697Z,97505.94
2022-08-17T02:44:08.019Z,97504.97
2022-08-17T02:46:12.962Z,97508.41
2022-08-17T02:48:15.991Z,97510.06
2022-08-17T02:50:34.435Z,97510.06
2022-08-17T02:52:43.650Z,97510.59
2022-08-17T02:54:47.025Z,97512.91
2022-08-17T02:56:50.124Z,97515.72
2022-08-17T02:58:53.168Z,97517.72
2022-08-17T03:00:56.216Z,97516.22
2022-08-17T03:03:02.708Z,97511.97
2022-08-17T03:05:06.765Z,97513.94
2022-08-17T03:07:09.751Z,97516.91
2022-08-17T03:09:13.247Z,97511.97
2022-08-17T03:11:16.275Z,97509.53
2022-08-17T03:13:19.554Z,97506.38
2022-08-17T03:15:24.464Z,97516.97
2022-08-17T03:17:27.613Z,97514.66
2022-08-17T03:19:32.155Z,97518.31
2022-08-17T03:21:35.260Z,97524.72
2022-08-17T03:23:41.180Z,97521.25
2022-08-17T03:25:46.413Z,97525.06
2022-08-17T03:27:49.522Z,97519.94
2022-08-17T03:29:55.086Z,97524.06
2022-08-17T03:31:58.266Z,97530.19
2022-08-17T03:34:02.075Z,97526.56
2022-08-17T03:36:07.956Z,97529.19
2022-08-17T03:38:12.324Z,97530.34
2022-08-17T03:40:17.183Z,97531.66
2022-08-17T03:42:41.634Z,97532.34
2022-08-17T03:44:44.672Z,97524.59
2022-08-17T03:47:05.475Z,97528.25
2022-08-17T03:49:26.833Z,97525.94
2022-08-17T03:51:48.783Z,97525.59
2022-08-17T03:54:11.083Z,97528.41
2022-08-17T03:56:40.106Z,97524.13
2022-08-17T03:58:43.079Z,97528.75
2022-08-17T04:00:46.500Z,97529.09
2022-08-17T04:02:49.558Z,97534.91
2022-08-17T04:04:52.859Z,97523.16
2022-08-17T04:06:57.875Z,97531.44
2022-08-17T04:09:00.883Z,97543.81
2022-08-17T04:11:03.948Z,97538.38
2022-08-17T04:13:07.004Z,97535.56
2022-08-17T04:15:11.692Z,97536.22
2022-08-17T04:17:15.068Z,97537.69
2022-08-17T04:19:18.809Z,97541.00
2022-08-17T04:21:22.543Z,97542.81
2022-08-17T04:23:32.750Z,97548.09
2022-08-17T04:25:41.600Z,97553.56
2022-08-17T04:27:44.983Z,97560.31
2022-08-17T04:29:54.273Z,97554.84
2022-08-17T04:31:59.072Z,97567.09
2022-08-17T04:34:02.456Z,97583.59
2022-08-17T04:36:07.558Z,97581.78
2022-08-17T04:38:14.246Z,97584.44
2022-08-17T04:40:42.701Z,97578.31
2022-08-17T04:43:01.701Z,97586.06
2022-08-17T04:45:05.675Z,97585.41
2022-08-17T04:47:08.730Z,97588.06
2022-08-17T04:49:16.005Z,97587.56
2022-08-17T04:51:21.495Z,97594.81
2022-08-17T04:53:24.509Z,97602.09
2022-08-17T04:55:29.083Z,97597.97
2022-08-17T04:57:39.382Z,97603.56
2022-08-17T04:59:44.887Z,97603.25
2022-08-17T05:01:51.301Z,97601.91
2022-08-17T05:03:56.110Z,97616.13
2022-08-17T05:05:59.297Z,97629.19
2022-08-17T05:08:04.232Z,97637.59
2022-08-17T05:10:09.088Z,97641.56
2022-08-17T05:12:13.527Z,97646.34
2022-08-17T05:14:16.770Z,97646.53
2022-08-17T05:16:21.248Z,97638.56
2022-08-17T05:18:24.466Z,97646.84
2022-08-17T05:20:28.749Z,97656.44
2022-08-17T05:22:31.768Z,97660.72
2022-08-17T05:24:40.775Z,97654.94
2022-08-17T05:26:46.830Z,97657.41
2022-08-17T05:28:53.972Z,97660.34
2022-08-17T05:30:58.054Z,97656.13
2022-08-17T05:33:02.988Z,97659.22
2022-08-17T05:35:07.225Z,97658.19
2022-08-17T05:37:10.353Z,97655.28
2022-08-17T05:39:16.124Z,97638.59
2022-08-17T05:41:20.371Z,97638.06
2022-08-17T05:43:25.385Z,97638.56
2022-08-17T05:45:55.354Z,97646.13
2022-08-17T05:47:53.181Z,97647.81
2022-08-17T05:49:56.361Z,97649.22
2022-08-17T05:52:19.897Z,97643.06
2022-08-17T05:54:31.903Z,97638.00
2022-08-17T05:56:57.235Z,97643.44
2022-08-17T05:59:08.830Z,97625.44
2022-08-17T06:01:21.253Z,97635.56
2022-08-17T06:03:34.235Z,97650.03
2022-08-17T06:06:02.392Z,97647.53
2022-08-17T06:08:14.682Z,97647.19
2022-08-17T06:10:24.035Z,97650.75
2022-08-17T06:12:38.447Z,97655.16
2022-08-17T06:15:01.555Z,97661.16
2022-08-17T06:17:11.476Z,97654.06
2022-08-17T06:19:17.839Z,97659.94
2022-08-17T06:21:23.751Z,97662.66
2022-08-17T06:23:37.987Z,97672.97
2022-08-17T06:25:50.819Z,97673.03
2022-08-17T06:27:56.942Z,97679.44
2022-08-17T06:30:09.141Z,97683.50
2022-08-17T06:32:14.579Z,97692.13
2022-08-17T06:34:18.599Z,97698.31
2022-08-17T06:36:34.116Z,97695.84
2022-08-17T06:38:43.849Z,97689.88
2022-08-17T06:41:03.175Z,97704.88
2022-08-17T06:43:14.933Z,97706.69
2022-08-17T06:45:22.820Z,97705.59
2022-08-17T06:47:31.281Z,97709.06
2022-08-17T06:49:41.894Z,97713.06
2022-08-17T06:51:48.664Z,97703.31
2022-08-17T06:53:54.645Z,97706.16
2022-08-17T06:56:00.962Z,97709.41
2022-08-17T06:58:16.366Z,97705.53
2022-08-17T07:00:22.282Z,97708.88
2022-08-17T07:02:53.100Z,97703.66
2022-08-17T07:04:56.866Z,97704.53
2022-08-17T07:07:22.725Z,97696.94
2022-08-17T07:09:31.184Z,97695.69
2022-08-17T07:11:40.110Z,97698.31
2022-08-17T07:13:51.220Z,97695.63
2022-08-17T07:16:00.880Z,97691.47
2022-08-17T07:18:05.672Z,97682.38
2022-08-17T07:20:11.653Z,97682.66
2022-08-17T07:22:22.624Z,97682.31
2022-08-17T07:24:35.463Z,97686.72
2022-08-17T07:26:39.365Z,97683.72
2022-08-17T07:28:44.661Z,97684.56
2022-08-17T07:30:51.587Z,97681.72
2022-08-17T07:32:57.798Z,97672.16
2022-08-17T07:35:15.281Z,97672.06
2022-08-17T07:37:20.722Z,97662.69
2022-08-17T07:39:27.862Z,97681.31
2022-08-17T07:41:58.049Z,97668.66
2022-08-17T07:43:58.787Z,97658.41
2022-08-17T07:46:24.027Z,97653.13
2022-08-17T07:48:27.188Z,97665.28
2022-08-17T07:50:31.889Z,97666.81
2022-08-17T07:52:51.345Z,97672.16
2022-08-17T07:54:56.084Z,97673.41
2022-08-17T07:57:01.461Z,97659.75
2022-08-17T07:59:13.066Z,97665.69
2022-08-17T08:01:18.362Z,97655.84
2022-08-17T08:03:27.072Z,97663.09
2022-08-17T08:05:50.097Z,97661.16
2022-08-17T08:07:55.884Z,97660.41
2022-08-17T08:10:07.751Z,97665.47
2022-08-17T08:12:33.889Z,97673.97
2022-08-17T08:14:39.662Z,97670.06
2022-08-17T08:16:58.014Z,97663.50
2022-08-17T08:19:03.055Z,97666.69
2022-08-17T08:21:09.444Z,97663.19
2022-08-17T08:23:19.557Z,97671.03
2022-08-17T08:25:28.880Z,97672.50
2022-08-17T08:27:48.631Z,97662.78
2022-08-17T08:29:55.154Z,97664.00
2022-08-17T08:32:04.831Z,97671.22
2022-08-17T08:34:47.360Z,97673.13
2022-08-17T08:37:13.003Z,97680.66
2022-08-17T08:39:14.775Z,97674.94
2022-08-17T08:41:26.533Z,97675.31
2022-08-17T08:43:36.120Z,97677.34
2022-08-17T08:45:47.245Z,97671.81
2022-08-17T08:48:05.913Z,97678.25
2022-08-17T08:50:37.600Z,97671.47
2022-08-17T08:52:54.114Z,97673.66
2022-08-17T08:55:02.554Z,97674.13
2022-08-17T08:57:26.688Z,97677.97
2022-08-17T08:59:36.294Z,97688.00
2022-08-17T09:01:53.782Z,97684.00
2022-08-17T09:04:24.703Z,97678.28
2022-08-17T09:06:40.241Z,97679.78
2022-08-17T09:08:55.505Z,97677.31
2022-08-17T09:11:04.899Z,97689.47
2022-08-17T09:13:20.782Z,97690.63
2022-08-17T09:15:27.694Z,97689.16
2022-08-17T09:17:36.611Z,97696.84
2022-08-17T09:19:43.910Z,97692.75
2022-08-17T09:21:52.509Z,97697.38
2022-08-17T09:24:04.923Z,97691.66
2022-08-17T09:26:14.812Z,97685.78
2022-08-17T09:28:20.309Z,97685.75
2022-08-17T09:30:24.989Z,97688.78
2022-08-17T09:32:32.831Z,97697.63
2022-08-17T09:34:39.803Z,97698.84
2022-08-17T09:36:51.464Z,97702.69
2022-08-17T09:39:01.163Z,97712.16
2022-08-17T09:41:15.197Z,97711.94
2022-08-17T09:43:26.044Z,97707.16
2022-08-17T09:45:32.481Z,97707.16
2022-08-17T09:47:42.157Z,97706.91
2022-08-17T09:49:48.440Z,97701.78
2022-08-17T09:51:55.541Z,97707.50
2022-08-17T09:54:20.956Z,97714.75
2022-08-17T09:56:31.234Z,97710.50
2022-08-17T09:58:44.248Z,97721.13
2022-08-17T10:00:57.684Z,97720.53
2022-08-17T10:03:17.972Z,97717.69
2022-08-17T10:05:24.044Z,97724.03
2022-08-17T10:07:30.854Z,97719.19
2022-08-17T10:09:45.845Z,97724.91
2022-08-17T10:12:09.564Z,97727.72
2022-08-17T10:14:36.997Z,97726.00
2022-08-17T10:16:45.404Z,97730.69
2022-08-17T10:18:57.919Z,97732.94
2022-08-17T10:21:21.570Z,97727.78
2022-08-17T10:23:44.329Z,97724.50
2022-08-17T10:26:08.649Z,97724.34
2022-08-17T10:28:19.972Z,97719.44
2022-08-17T10:30:25.649Z,97730.41
2022-08-17T10:32:33.808Z,97736.81
2022-08-17T10:35:01.506Z,97736.69
2022-08-17T10:37:14.052Z,97743.94
2022-08-17T10:39:26.833Z,97743.50
2022-08-17T10:41:39.707Z,97748.53
2022-08-17T10:44:37.574Z,97756.97
2022-08-17T10:46:31.191Z,97758.03
2022-08-17T10:48:37.213Z,97761.84
2022-08-17T10:50:59.655Z,97756.94
2022-08-17T10:53:02.779Z,97763.78
2022-08-17T10:55:14.087Z,97772.91
2022-08-17T10:57:36.415Z,97780.34
2022-08-17T10:59:51.736Z,97781.66
2022-08-17T11:02:05.165Z,97775.81
2022-08-17T11:04:18.070Z,97776.63
2022-08-17T11:06:26.698Z,97785.72
2022-08-17T11:09:07.332Z,97786.56
2022-08-17T11:11:34.348Z,97792.31
2022-08-17T11:13:48.471Z,97799.78
2022-08-17T11:16:03.560Z,97797.69
2022-08-17T11:18:35.096Z,97806.78
2022-08-17T11:21:06.215Z,97804.53
2022-08-17T11:23:29.440Z,97803.94
2022-08-17T11:25:39.271Z,97813.50
2022-08-17T11:27:43.356Z,97797.47
2022-08-17T11:29:58.080Z,97804.72
2022-08-17T11:32:11.245Z,97803.03
2022-08-17T11:34:19.643Z,97795.59
2022-08-17T11:36:31.617Z,97786.69
2022-08-17T11:38:43.959Z,97790.25
2022-08-17T11:41:15.084Z,97779.75
2022-08-17T11:43:44.458Z,97791.69
2022-08-17T11:46:05.240Z,97806.09
2022-08-17T11:48:35.488Z,97815.56
2022-08-17T11:51:03.579Z,97813.69
2022-08-17T11:53:07.487Z,97815.78
2022-08-17T11:55:34.426Z,97825.50
2022-08-17T11:58:01.423Z,97823.63
2022-08-17T12:00:10.302Z,97817.00
2022-08-17T12:02:48.906Z,97822.59
2022-08-17T12:05:11.967Z,97820.53
2022-08-17T12:07:18.074Z,97826.56
2022-08-17T12:09:24.801Z,97821.63
2022-08-17T12:12:11.350Z,97810.13
2022-08-17T12:13:57.769Z,97806.06
2022-08-17T12:16:00.979Z,97802.81
2022-08-17T12:18:04.653Z,97799.69
2022-08-17T12:20:19.554Z,97800.47
2022-08-17T12:22:26.544Z,97789.50
2022-08-17T12:24:36.214Z,97783.63
2022-08-17T12:26:39.297Z,97789.53
2022-08-17T12:28:46.345Z,97790.75
2022-08-17T12:30:52.054Z,97787.56
2022-08-17T12:32:55.693Z,97782.38
2022-08-17T12:34:58.947Z,97778.56
2022-08-17T12:37:06.821Z,97783.91
2022-08-17T12:39:14.583Z,97775.56
2022-08-17T12:41:34.204Z,97760.66
2022-08-17T12:43:37.336Z,97761.56
2022-08-17T12:45:41.795Z,97757.44
2022-08-17T12:47:45.739Z,97757.00
2022-08-17T12:49:50.269Z,97753.44
2022-08-17T12:51:58.249Z,97749.09
2022-08-17T12:54:03.201Z,97752.16
2022-08-17T12:56:11.995Z,97745.06
2022-08-17T12:58:22.134Z,97741.13
2022-08-17T13:00:28.758Z,97741.25
2022-08-17T13:02:39.775Z,97734.41
2022-08-17T13:04:42.931Z,97725.91
2022-08-17T13:06:52.015Z,97722.44
2022-08-17T13:09:12.415Z,97723.00
2022-08-17T13:11:20.803Z,97721.66
2022-08-17T13:13:26.561Z,97710.19
2022-08-17T13:15:32.766Z,97699.94
2022-08-17T13:17:37.246Z,97700.19
2022-08-17T13:19:49.046Z,97693.78
2022-08-17T13:21:54.479Z,97694.16
2022-08-17T13:24:02.330Z,97696.84
2022-08-17T13:26:09.674Z,97686.81
2022-08-17T13:28:18.603Z,97682.50
2022-08-17T13:30:34.240Z,97681.44
2022-08-17T13:32:43.842Z,97677.81
2022-08-17T13:35:15.055Z,97677.38
2022-08-17T13:37:19.852Z,97671.19
2022-08-17T13:39:26.379Z,97666.44
2022-08-17T13:41:35.748Z,97665.50
2022-08-17T13:43:42.683Z,97661.41
2022-08-17T13:45:50.940Z,97651.72
2022-08-17T13:48:06.379Z,97659.66
2022-08-17T13:50:20.991Z,97666.19
2022-08-17T13:52:37.951Z,97667.88
2022-08-17T13:54:41.683Z,97670.78
2022-08-17T13:56:55.122Z,97659.41
2022-08-17T13:59:01.204Z,97662.00
2022-08-17T14:01:32.160Z,97650.28
2022-08-17T14:03:35.836Z,97648.63
2022-08-17T14:05:39.977Z,97652.84
2022-08-17T14:07:43.005Z,97651.56
2022-08-17T14:09:49.121Z,97652.59
2022-08-17T14:11:55.073Z,97642.31
2022-08-17T14:13:58.709Z,97643.19
2022-08-17T14:16:01.960Z,97627.88
2022-08-17T14:18:05.231Z,97619.28
2022-08-17T14:20:11.058Z,97612.06
2022-08-17T14:22:19.590Z,97605.81
2022-08-17T14:24:24.808Z,97606.66
2022-08-17T14:26:27.932Z,97604.78
2022-08-17T14:28:32.411Z,97605.69
2022-08-17T14:30:37.701Z,97600.97
2022-08-17T14:32:41.997Z,97603.06
2022-08-17T14:34:46.050Z,97590.88
2022-08-17T14:36:49.452Z,97593.88
2022-08-17T14:38:52.605Z,97589.19
2022-08-17T14:40:55.842Z,97589.00
2022-08-17T14:42:59.241Z,97600.50
2022-08-17T14:45:06.106Z,97590.03
2022-08-17T14:47:11.895Z,97593.69
2022-08-17T14:49:16.125Z,97595.81
2022-08-17T14:51:20.764Z,97589.81
2022-08-17T14:53:23.916Z,97589.75
2022-08-17T14:55:27.112Z,97585.69
2022-08-17T14:57:34.052Z,97594.00
2022-08-17T14:59:37.430Z,97601.16
2022-08-17T15:01:42.040Z,97596.34
2022-08-17T15:03:45.256Z,97600.44
2022-08-17T15:05:48.562Z,97597.50
2022-08-17T15:07:53.449Z,97598.78
2022-08-17T15:09:56.708Z,97605.25
2022-08-17T15:12:02.317Z,97606.88
2022-08-17T15:14:05.404Z,97596.69
2022-08-17T15:16:09.780Z,97591.06
2022-08-17T15:18:14.212Z,97596.69
2022-08-17T15:20:19.396Z,97599.88
2022-08-17T15:22:25.110Z,97599.75
2022-08-17T15:24:28.197Z,97600.25
2022-08-17T15:26:31.416Z,97605.63
2022-08-17T15:28:34.587Z,97609.66
2022-08-17T15:30:37.780Z,97598.50
2022-08-17T15:32:50.619Z,97593.13
2022-08-17T15:35:00.733Z,97592.56
2022-08-17T15:37:03.897Z,97596.78
2022-08-17T15:39:06.864Z,97589.31
2022-08-17T15:41:14.984Z,97586.25
2022-08-17T15:43:26.437Z,97588.38
2022-08-17T15:45:30.723Z,97589.66
2022-08-17T15:47:33.757Z,97589.91
2022-08-17T15:49:40.052Z,97594.25
2022-08-17T15:51:44.466Z,97589.66
2022-08-17T15:53:50.791Z,97584.03
2022-08-17T15:55:53.824Z,97583.22
2022-08-17T15:57:56.945Z,97579.72
2022-08-17T16:00:00.124Z,97585.94
2022-08-17T16:03:14.042Z,97584.78
2022-08-17T16:04:30.867Z,97585.84
2022-08-17T16:06:34.893Z,97587.28
2022-08-17T16:08:41.538Z,97585.53
2022-08-17T16:10:44.575Z,97577.38
2022-08-17T16:12:49.369Z,97575.97
2022-08-17T16:14:54.231Z,97579.13
2022-08-17T16:16:59.122Z,97579.88
2022-08-17T16:19:02.553Z,97577.28
2022-08-17T16:21:23.057Z,97578.84
2022-08-17T16:23:26.092Z,97570.66
2022-08-17T16:25:53.575Z,97571.13
2022-08-17T16:27:56.553Z,97569.94
2022-08-17T16:30:00.813Z,97569.56
2022-08-17T16:32:09.877Z,97577.31
2022-08-17T16:34:17.160Z,97575.09
2022-08-17T16:36:23.180Z,97568.56
2022-08-17T16:38:27.114Z,97564.72
2022-08-17T16:40:36.133Z,97561.44
2022-08-17T16:42:40.672Z,97554.88
2022-08-17T16:44:43.724Z,97563.44
2022-08-17T16:46:48.328Z,97571.16
2022-08-17T16:48:52.012Z,97566.00
2022-08-17T16:51:03.480Z,97561.34
2022-08-17T16:53:10.594Z,97560.97
2022-08-17T16:55:13.842Z,97561.66
2022-08-17T16:57:18.793Z,97566.72
2022-08-17T16:59:31.226Z,97567.50
2022-08-17T17:01:44.083Z,97568.34
2022-08-17T17:03:54.057Z,97566.13
2022-08-17T17:06:06.541Z,97568.69
2022-08-17T17:08:12.692Z,97564.81
2022-08-17T17:10:19.859Z,97567.97
2022-08-17T17:13:00.910Z,97564.94
2022-08-17T17:14:52.124Z,97558.38
2022-08-17T17:17:01.210Z,97563.97
2022-08-17T17:19:10.652Z,97551.47
2022-08-17T17:21:15.913Z,97548.69
2022-08-17T17:23:31.545Z,97548.53
2022-08-17T17:25:40.583Z,97550.06
2022-08-17T17:27:51.911Z,97551.81
2022-08-17T17:30:06.088Z,97554.94
2022-08-17T17:32:17.225Z,97551.56
2022-08-17T17:34:20.853Z,97552.84
2022-08-17T17:36:26.558Z,97556.19
2022-08-17T17:38:33.387Z,97559.31
2022-08-17T17:40:39.564Z,97557.56
2022-08-17T17:42:43.364Z,97547.50
2022-08-17T17:44:54.949Z,97551.22
2022-08-17T17:47:00.190Z,97549.00
2022-08-17T17:49:03.293Z,97544.13
2022-08-17T17:51:11.606Z,97548.06
2022-08-17T17:53:35.330Z,97551.44
2022-08-17T17:55:53.660Z,97552.13
2022-08-17T17:58:04.535Z,97544.75
2022-08-17T18:00:13.271Z,97532.00
2022-08-17T18:02:40.109Z,97535.38
2022-08-17T18:04:47.973Z,97531.72
2022-08-17T18:07:00.392Z,97534.47
2022-08-17T18:09:10.286Z,97528.41
2022-08-17T18:11:24.488Z,97537.34
2022-08-17T18:13:35.362Z,97535.56
2022-08-17T18:15:51.299Z,97536.69
2022-08-17T18:18:03.704Z,97534.06
2022-08-17T18:20:07.948Z,97537.91
2022-08-17T18:22:14.731Z,97547.66
2022-08-17T18:24:30.243Z,97543.19
2022-08-17T18:26:51.417Z,97536.00
2022-08-17T18:28:55.518Z,97537.47
2022-08-17T18:31:12.655Z,97545.81
2022-08-17T18:33:20.847Z,97536.78
2022-08-17T18:35:31.916Z,97531.97
2022-08-17T18:37:42.678Z,97527.91
2022-08-17T18:39:45.791Z,97524.50
2022-08-17T18:41:50.737Z,97534.91
2022-08-17T18:44:02.340Z,97530.81
2022-08-17T18:46:28.948Z,97537.69
2022-08-17T18:48:36.435Z,97547.97
2022-08-17T18:50:42.328Z,97545.38
2022-08-17T18:52:47.268Z,97540.28
2022-08-17T18:55:08.559Z,97538.47
2022-08-17T18:57:12.441Z,97545.28
2022-08-17T18:59:39.779Z,97551.09
2022-08-17T19:01:54.605Z,97549.91
2022-08-17T19:03:59.358Z,97548.88
2022-08-17T19:06:19.198Z,97558.22
2022-08-17T19:08:24.787Z,97550.41
2022-08-17T19:10:46.283Z,97560.75
2022-08-17T19:12:54.999Z,97555.88
2022-08-17T19:15:03.911Z,97554.06
2022-08-17T19:17:12.953Z,97564.56
2022-08-17T19:19:18.556Z,97564.16
2022-08-17T19:21:25.366Z,97563.78
2022-08-17T19:23:32.771Z,97566.28
2022-08-17T19:25:38.524Z,97576.56
2022-08-17T19:27:49.979Z,97579.03
2022-08-17T19:29:56.292Z,97592.22
2022-08-17T19:31:59.750Z,97584.63
2022-08-17T19:34:04.309Z,97572.28
2022-08-17T19:36:11.206Z,97572.31
2022-08-17T19:38:25.344Z,97580.13
2022-08-17T19:40:52.436Z,97587.75
2022-08-17T19:43:05.052Z,97582.81
2022-08-17T19:45:14.273Z,97575.00
2022-08-17T19:47:50.904Z,97585.91
2022-08-17T19:49:53.757Z,97584.25
2022-08-17T19:51:59.566Z,97587.78
2022-08-17T19:54:07.433Z,97584.72
2022-08-17T19:56:15.992Z,97582.06
2022-08-17T19:58:32.596Z,97581.44
2022-08-17T20:00:40.959Z,97579.59
2022-08-17T20:02:54.048Z,97577.50
2022-08-17T20:05:01.531Z,97573.38
2022-08-17T20:07:07.906Z,97577.31
2022-08-17T20:09:15.375Z,97574.84
2022-08-17T20:11:22.485Z,97573.81
2022-08-17T20:13:33.138Z,97583.28
2022-08-17T20:15:41.107Z,97578.34
2022-08-17T20:17:46.635Z,97576.91
2022-08-17T20:19:52.376Z,97575.44
2022-08-17T20:22:01.652Z,97564.78
2022-08-17T20:24:14.157Z,97568.91
2022-08-17T20:26:21.420Z,97573.19
2022-08-17T20:28:27.895Z,97579.56
2022-08-17T20:30:34.287Z,97577.50
2022-08-17T20:32:51.865Z,97583.22
2022-08-17T20:35:20.057Z,97588.97
2022-08-17T20:37:31.943Z,97590.44
2022-08-17T20:39:39.837Z,97595.31
2022-08-17T20:42:05.323Z,97599.63
2022-08-17T20:44:08.463Z,97595.13
2022-08-17T20:46:24.784Z,97597.16
2022-08-17T20:48:38.621Z,97596.97
2022-08-17T20:50:45.838Z,97591.00
2022-08-17T20:52:53.458Z,97588.50
2022-08-17T20:54:58.101Z,97587.06
2022-08-17T20:57:01.855Z,97589.94
2022-08-17T20:59:09.129Z,97598.97
2022-08-17T21:01:14.003Z,97594.63
2022-08-17T21:03:50.631Z,97597.09
2022-08-17T21:05:59.935Z,97598.28
2022-08-17T21:08:16.261Z,97591.09
2022-08-17T21:10:30.994Z,97605.19
2022-08-17T21:12:42.507Z,97607.25
2022-08-17T21:15:02.209Z,97612.97
2022-08-17T21:17:20.244Z,97615.00
2022-08-17T21:19:54.162Z,97621.78
2022-08-17T21:22:12.383Z,97622.78
2022-08-17T21:24:25.134Z,97635.28
2022-08-17T21:26:33.551Z,97637.09
2022-08-17T21:29:01.291Z,97629.31
2022-08-17T21:31:09.230Z,97633.81
2022-08-17T21:33:21.448Z,97631.38
2022-08-17T21:35:31.104Z,97645.91
2022-08-17T21:37:40.285Z,97645.28
2022-08-17T21:39:48.450Z,97645.47
2022-08-17T21:41:53.801Z,97648.97
2022-08-17T21:44:02.950Z,97650.59
2022-08-17T21:46:08.262Z,97645.06
2022-08-17T21:48:15.427Z,97643.44
2022-08-17T21:50:20.682Z,97641.78
2022-08-17T21:52:26.061Z,97652.66
2022-08-17T21:54:34.575Z,97648.72
2022-08-17T21:56:40.430Z,97656.25
2022-08-17T21:58:48.477Z,97666.50
2022-08-17T22:01:10.907Z,97665.22
2022-08-17T22:03:24.287Z,97672.97
2022-08-17T22:05:34.715Z,97675.78
2022-08-17T22:07:40.706Z,97681.09
2022-08-17T22:09:46.147Z,97678.44
2022-08-17T22:11:57.126Z,97680.91
2022-08-17T22:14:00.692Z,97694.59
2022-08-17T22:16:27.966Z,97695.84
2022-08-17T22:18:33.244Z,97701.56
2022-08-17T22:20:36.432Z,97711.59
2022-08-17T22:23:20.484Z,97721.38
2022-08-17T22:25:25.349Z,97722.41
2022-08-17T22:27:55.472Z,97745.34
2022-08-17T22:30:00.239Z,97773.19
2022-08-17T22:32:03.541Z,97790.31
2022-08-17T22:34:13.841Z,97805.00
2022-08-17T22:36:26.001Z,97815.03
2022-08-17T22:38:33.385Z,97816.47
2022-08-17T22:40:36.515Z,97825.94
2022-08-17T22:42:47.274Z,97829.03
2022-08-17T22:44:54.062Z,97838.72
2022-08-17T22:47:03.680Z,97855.56
2022-08-17T22:49:07.489Z,97860.03
2022-08-17T22:51:14.613Z,97864.16
2022-08-17T22:53:38.268Z,97869.94
2022-08-17T22:56:07.875Z,97872.41
2022-08-17T22:58:37.655Z,97874.88
2022-08-17T23:13:15.742Z,97895.69
2022-08-17T23:15:32.868Z,97894.00
2022-08-17T23:42:57.526Z,97926.25
2022-08-17T23:45:03.182Z,97924.56
2022-08-17T23:47:07.803Z,97920.03
2022-08-17T23:49:10.828Z,97917.38
2022-08-17T23:55:19.855Z,97903.16
2022-08-17T23:57:33.649Z,97900.88
2022-08-17T23:59:40.929Z,97907.22
